Monday, December 17, 2018, 4:48 AM EST
Back to Local

KWAL, Wallops Flight Fac Airport

Location: Wallops Island, VA, United States Lat: 37.933
Local Time: 4:48 AM EST ( 9:48 GMT) Lon: -75.467
Time Zone: US/Eastern Elev: 39 ft

Show me the last for .
Show Decoded

2018-12-17 03:54 METAR KWAL 170854Z AUTO 30008KT 10SM OVC033 06/03 A2987 RMK AO2 SLP113 T00610028
                 50002 =
2018-12-17 02:54 METAR KWAL 170754Z AUTO 29007KT 10SM CLR 05/03 A2989 RMK AO2 SLP119 T00500028 =
2018-12-17 02:36 METAR KWAL 170736Z AUTO 30007KT 10SM SCT017 05/03 A2989 RMK AO2 T00500028 =
2018-12-17 01:54 METAR KWAL 170654Z AUTO 30010KT 10SM BKN016 OVC021 06/03 A2988 RMK AO2 SLP115
                 T00610028 =
2018-12-17 00:54 METAR KWAL 170554Z AUTO 30008KT 10SM SCT010 OVC020 06/03 A2987 RMK AO2 SLP111
                 60000 T00560033 10072 20056 58001 =
2018-12-16 23:54 METAR KWAL 170454Z AUTO 31010G16KT 7SM BKN010 OVC015 06/03 A2988 RMK AO2
                 RAB04E13 CIG 008V013 SLP115 P0000 T00610033 401280061 =
2018-12-16 23:30 METAR KWAL 170430Z AUTO 31013KT 10SM FEW009 BKN014 OVC019 06/03 A2988 RMK AO2
                 RAB04E13 P0000 T00610033 =
2018-12-16 23:05 METAR KWAL 170405Z AUTO 31008KT 6SM -RA BR OVC009 06/04 A2988 RMK AO2 RAB04 CIG
                 007V012 P0000 T00610039 =
2018-12-16 22:54 METAR KWAL 170354Z AUTO 31010G17KT 8SM OVC010 06/03 A2988 RMK AO2 SLP115
                 T00610033 =
2018-12-16 21:54 METAR KWAL 170254Z AUTO 30009KT 10SM OVC011 06/03 A2987 RMK AO2 SLP112 T00610033
                 51020 =
2018-12-16 21:03 METAR KWAL 170203Z AUTO 31010KT 10SM OVC010 07/04 A2986 RMK AO2 T00670039 =
2018-12-16 20:54 METAR KWAL 170154Z AUTO 31010KT 10SM OVC009 07/04 A2985 RMK AO2 SLP106 T00670039
                 =
2018-12-16 19:54 METAR KWAL 170054Z AUTO 31012G21KT 10SM OVC009 07/04 A2984 RMK AO2 SLP103
                 T00670044 =
2018-12-16 19:39 METAR KWAL 170039Z AUTO 31013G20KT 10SM OVC009 07/04 A2984 RMK AO2 CIG 008V012
                 T00670044 =
2018-12-16 19:12 METAR KWAL 170012Z AUTO 33014G21KT 10SM OVC011 07/04 A2982 RMK AO2 T00720044 =
2018-12-16 19:04 METAR KWAL 170004Z AUTO 32014G22KT 10SM BKN009 OVC014 07/04 A2982 RMK AO2 CIG
                 007V012 T00720044 =
2018-12-16 18:54 METAR KWAL 162354Z AUTO 31013G22KT 10SM OVC007 07/04 A2981 RMK AO2 CIG 006V011
                 SLP093 60000 T00720044 10111 20072 53016 =
2018-12-16 17:54 METAR KWAL 162254Z AUTO 30013G20KT 10SM OVC006 08/06 A2979 RMK AO2 SLP085
                 T00780056 =
2018-12-16 17:23 METAR KWAL 162223Z AUTO 30013KT 8SM OVC006 08/06 A2978 RMK AO2 T00830061 =
2018-12-16 16:54 METAR KWAL 162154Z AUTO 29013G21KT 10SM OVC005 08/07 A2977 RMK AO2 SLP077
                 T00830067 =
2018-12-16 16:52 METAR KWAL 162152Z AUTO 29013G21KT 10SM OVC005 08/07 A2977 RMK AO2 =
2018-12-16 15:54 METAR KWAL 162054Z AUTO 28011G19KT 4SM BR OVC004 08/07 A2974 RMK AO2
                 RAE1959B31E39 SLP066 P0000 60000 T00830067 51002 =
2018-12-16 15:49 METAR KWAL 162049Z AUTO 28013G19KT 4SM BR OVC004 08/07 A2974 RMK AO2
                 RAE1959B31E39 P0000 =
2018-12-16 15:41 METAR KWAL 162041Z AUTO 27010G19KT 2 1/2SM BR OVC003 08/07 A2974 RMK AO2
                 RAE1959B31E39 P0000 T00830067 $ =
2018-12-16 15:36 METAR KWAL 162036Z AUTO 27011G19KT 1 1/2SM -RA BR OVC003 08/07 A2974 RMK AO2
                 RAE1959B31 P0000 T00830067 $ =
2018-12-16 15:28 METAR KWAL 162028Z AUTO 27014G22KT 2SM BR OVC003 08/07 A2974 RMK AO2 RAE1959 CIG
                 003V006 P0000 T00830067 $ =
2018-12-16 15:02 METAR KWAL 162002Z AUTO 26009G17KT 7SM OVC005 09/07 A2973 RMK AO2 RAE1959 P0000
                 T00890067 $ =
2018-12-16 14:54 METAR KWAL 161954Z AUTO 26011G20KT 4SM -RA BR OVC006 09/07 A2974 RMK AO2 RAB21
                 SLP067 P0000 T00890072 $ =
2018-12-16 14:39 METAR KWAL 161939Z AUTO 25011G17KT 3SM -RA BR BKN006 OVC012 10/08 A2973 RMK AO2
                 RAB21 P0000 T01000078 $ =
2018-12-16 14:31 METAR KWAL 161931Z AUTO 25011G19KT 2 1/2SM -RA BR BKN008 BKN014 OVC020 10/08
                 A2973 RMK AO2 RAB21 P0000 T01000078 $ =
2018-12-16 14:25 METAR KWAL 161925Z AUTO 24013G20KT 4SM -RA SCT008 BKN012 OVC018 10/07 A2973 RMK
                 AO2 RAB21 P0000 T01000072 $ =
2018-12-16 14:05 METAR KWAL 161905Z AUTO 25007G17KT 10SM FEW014 BKN021 OVC120 11/07 A2973 RMK AO2
                 T01110072 $ =
2018-12-16 13:54 METAR KWAL 161854Z AUTO 27008G16KT 10SM FEW015 SCT021 BKN120 11/07 A2973 RMK AO2
                 SLP065 T01110072 $ =
2018-12-16 12:54 METAR KWAL 161754Z AUTO 24009KT 10SM OVC065 11/07 A2975 RMK AO2 SLP070 T01110072
                 58029 $ =
2018-12-16 12:13 METAR KWAL 161713Z AUTO 25012G17KT 10SM SCT014 SCT020 OVC055 11/07 A2977 RMK AO2
                 T01060067 $ =
2018-12-16 11:54 METAR KWAL 161654Z AUTO 25011G18KT 10SM OVC013 11/07 A2978 RMK AO2 SLP081
                 T01060067 $ =
2018-12-16 10:54 METAR KWAL 161554Z AUTO 26010KT 10SM OVC010 11/07 A2982 RMK AO2 SLP093 T01060072
                 $ =
2018-12-16 10:21 METAR KWAL 161521Z AUTO 26008KT 10SM BKN011 OVC110 12/08 A2983 =
2018-12-16 09:54 METAR KWAL 161454Z AUTO 23009KT 10SM BKN009 12/08 A2983 RMK AO2 SLP099 T01170083
                 58003 $ =
2018-12-16 09:23 METAR KWAL 161423Z AUTO 23009KT 10SM OVC009 11/09 A2985 RMK AO2 CIG 007V013
                 T01110089 $ =
2018-12-16 08:54 METAR KWAL 161354Z AUTO 24009KT 10SM BKN007 12/09 A2985 RMK AO2 SLP106 T01170089
                 $ =
2018-12-16 08:43 METAR KWAL 161343Z AUTO 25006KT 10SM SCT006 12/09 A2985 RMK AO2 T01170094 $ =
2018-12-16 07:54 METAR KWAL 161254Z AUTO 23005KT 10SM OVC006 A2984 RMK AO2 SLP103 $ =
2018-12-16 07:14 METAR KWAL 161214Z AUTO 23003KT 10SM OVC006 11/09 A2985 RMK AO2 T01110094 $ =
2018-12-16 07:04 METAR KWAL 161204Z AUTO 23005KT 10SM OVC005 11/09 A2985 RMK AO2 T01110094 $ =
2018-12-16 06:54 METAR KWAL 161154Z AUTO 23003KT 10SM OVC004 11/10 A2984 RMK AO2 CIG 003V008
                 SLP102 60001 70085 T01110100 10128 20111 56004 $ =
2018-12-16 06:39 METAR KWAL 161139Z AUTO 25007KT 9SM OVC003 11/10 A2984 RMK AO2 T01110100 $ =
2018-12-16 05:54 METAR KWAL 161054Z AUTO 24009KT 10SM OVC005 12/10 A2984 RMK AO2 SLP102 T01170100
                 $ =
2018-12-16 04:54 METAR KWAL 160954Z AUTO 24007KT 8SM OVC004 12/11 A2984 RMK AO2 CIG 003V008
                 SLP102 T01220106 $ =

Support USWX by starting your Amazon purchase here.